»·PEaware :: SWA1337 KLAX-KLAS

SWA1337 :: KLAX-KLAS

FLIGHT INFORMATION

Flight Status: Arrived
Operator:
Southwest Airlines
More flights by this operator :: More flights under this callsign
Pilot: Adam F. (21125)
Aircraft: BOEING 737-800
(B738)
More flights by this aircraft type
Origin: KLAX Los Angeles Intl
United States
Destination: KLAS McCarran Intl
United States
More flights between these airports :: More routes between these airports
Route: +ORCKA3 MISEN KEPEC6
File this flight plan on PilotEdge
Remarks: Fairly New @ IFR
Altitude:
(Current/Filed)
23,000ft
Speed:
(Current/Filed)
325kts
Departed: 28-Nov-18 02:02 PM
Arrived: 28-Nov-18 03:00 PM
Distance/Time
Traveled:
205nm/0:58
Distance/Time
To Go:
Arrived

Flight Plot

Page will automatically refresh every two minutes.

Flight plan parsing failed; only flown route is shown


Map Options




Map Legend


Flown Route
Filed Route
Departure Airport
Arrival Airport
Navaid (VOR, NDB)
Fix

Horizontal Profiles

Position Reports

Time Latitude Longitude Heading Altitude Ground
Speed
28-Nov-18 13:40 33.947888 -118.401106 183 116ft 0kts
28-Nov-18 13:41 33.947888 -118.401106 183 116ft 0kts
28-Nov-18 13:42 33.947888 -118.401106 183 116ft 0kts
28-Nov-18 13:43 33.947888 -118.401106 183 116ft 0kts
28-Nov-18 13:44 33.947888 -118.401106 183 116ft 0kts
28-Nov-18 13:45 33.947888 -118.401106 183 116ft 0kts
28-Nov-18 13:46 33.947888 -118.401106 183 116ft 0kts
28-Nov-18 13:47 33.947888 -118.401106 183 116ft 0kts
28-Nov-18 13:48 33.947888 -118.401106 183 116ft 0kts
28-Nov-18 13:49 33.947888 -118.401106 183 116ft 0kts
28-Nov-18 13:50 33.947888 -118.401106 183 116ft 0kts
28-Nov-18 13:51 33.947888 -118.401106 183 116ft 0kts
28-Nov-18 13:52 33.947888 -118.401106 183 116ft 0kts
28-Nov-18 13:53 33.947888 -118.401106 183 116ft 0kts
28-Nov-18 13:54 33.947888 -118.401106 183 116ft 0kts
28-Nov-18 13:55 33.947888 -118.401106 183 116ft 0kts
28-Nov-18 13:56 33.947888 -118.401106 183 116ft 0kts
28-Nov-18 13:57 33.947888 -118.401106 183 116ft 0kts
28-Nov-18 13:58 33.948355 -118.401190 117 115ft 2kts
28-Nov-18 13:59 33.948372 -118.401398 83 115ft 0kts
28-Nov-18 14:00 33.948372 -118.401398 83 115ft 0kts
28-Nov-18 14:01 33.948373 -118.401386 83 115ft 0kts
28-Nov-18 14:02 33.949223 -118.401443 310 115ft 0kts
28-Nov-18 14:03 33.949224 -118.401444 310 115ft 0kts
28-Nov-18 14:04 33.950112 -118.402504 264 116ft 16kts
28-Nov-18 14:05 33.945210 -118.449683 261 1484ft 189kts
28-Nov-18 14:06 33.940637 -118.514786 260 3922ft 202kts
28-Nov-18 14:07 33.933659 -118.590291 261 4974ft 247kts
28-Nov-18 14:08 33.926989 -118.670809 260 5863ft 248kts
28-Nov-18 14:09 33.920992 -118.752752 260 7679ft 246kts
28-Nov-18 14:10 33.904833 -118.827540 221 9490ft 238kts
28-Nov-18 14:11 33.840588 -118.818071 137 11377ft 290kts
28-Nov-18 14:12 33.832811 -118.720360 71 13011ft 326kts
28-Nov-18 14:13 33.859895 -118.618213 70 13053ft 318kts
28-Nov-18 14:14 33.895285 -118.519260 60 15016ft 348kts
28-Nov-18 14:15 33.943197 -118.412688 50 16978ft 392kts
28-Nov-18 14:16 34.000294 -118.313704 50 18727ft 408kts
28-Nov-18 14:17 34.062172 -118.204728 50 20522ft 422kts
28-Nov-18 14:18 34.126500 -118.091022 49 22338ft 435kts
28-Nov-18 14:19 34.193884 -117.971435 49 23000ft 440kts
28-Nov-18 14:20 34.262453 -117.849255 49 23009ft 440kts
28-Nov-18 14:21 34.330550 -117.727471 49 22998ft 440kts
28-Nov-18 14:22 34.400849 -117.607164 47 22968ft 438kts
28-Nov-18 14:23 34.476053 -117.481515 47 22962ft 478kts
28-Nov-18 14:24 34.553355 -117.351199 47 22965ft 478kts
28-Nov-18 14:25 34.630392 -117.221091 48 22949ft 479kts
28-Nov-18 14:26 34.708013 -117.089488 48 22949ft 479kts
28-Nov-18 14:27 34.784937 -116.958526 48 22919ft 476kts
28-Nov-18 14:28 34.861814 -116.827132 48 22910ft 476kts
28-Nov-18 14:29 34.938380 -116.695347 49 22913ft 482kts
28-Nov-18 14:30 35.001972 -116.582540 50 22917ft 487kts
28-Nov-18 14:31 35.091611 -116.422984 51 22934ft 490kts
28-Nov-18 14:32 35.176477 -116.310736 36 22900ft 419kts
28-Nov-18 14:33 35.256423 -116.211118 38 22922ft 411kts
28-Nov-18 14:34 35.336472 -116.110272 39 21167ft 410kts
28-Nov-18 14:35 35.401752 -116.027820 40 19499ft 402kts
28-Nov-18 14:36 35.477894 -115.931338 40 17485ft 384kts
28-Nov-18 14:37 35.550260 -115.839402 41 15485ft 367kts
28-Nov-18 14:38 35.619669 -115.751040 42 13503ft 354kts
28-Nov-18 14:39 35.686208 -115.666126 42 13040ft 344kts
28-Nov-18 14:40 35.757022 -115.589383 16 13049ft 332kts
28-Nov-18 14:41 35.844280 -115.571036 354 13041ft 317kts
28-Nov-18 14:42 35.930203 -115.560942 13 13035ft 329kts
28-Nov-18 14:43 35.994616 -115.486918 62 13021ft 325kts
28-Nov-18 14:44 36.027077 -115.382581 79 11722ft 347kts
28-Nov-18 14:45 36.023887 -115.271110 95 9985ft 314kts
28-Nov-18 14:46 36.016383 -115.169898 93 9021ft 286kts
28-Nov-18 14:47 36.010284 -115.079563 100 8481ft 277kts
28-Nov-18 14:48 36.005230 -114.992602 99 8000ft 237kts
28-Nov-18 14:49 36.000128 -114.909375 99 8003ft 247kts
28-Nov-18 14:50 35.994965 -114.824631 99 8003ft 247kts
28-Nov-18 14:51 35.989401 -114.740028 99 8003ft 247kts
28-Nov-18 14:52 35.984706 -114.656108 87 7973ft 232kts
28-Nov-18 14:53 36.024097 -114.606941 2 7790ft 215kts
28-Nov-18 14:54 36.066664 -114.642722 274 7611ft 186kts
28-Nov-18 14:55 36.071772 -114.706025 268 7192ft 185kts
28-Nov-18 14:56 36.073662 -114.769385 263 6538ft 185kts
28-Nov-18 14:57 36.073596 -114.834026 264 5859ft 190kts
28-Nov-18 14:58 36.073651 -114.898618 265 5189ft 194kts
28-Nov-18 14:59 36.073657 -114.965320 267 4501ft 195kts
28-Nov-18 15:00 36.073872 -115.030282 269 3896ft 194kts
28-Nov-18 15:01 36.073192 -115.091669 273 2840ft 186kts
28-Nov-18 15:02 36.073640 -115.145177 270 2101ft 52kts
28-Nov-18 15:03 36.074425 -115.149915 297 2118ft 4kts
28-Nov-18 15:04 36.077352 -115.152518 335 2122ft 0kts
28-Nov-18 15:05 36.077436 -115.152564 335 2122ft 0kts
28-Nov-18 15:06 36.077480 -115.152588 335 2122ft 3kts
28-Nov-18 15:07 36.078715 -115.149964 95 2110ft 20kts
28-Nov-18 15:08 36.080424 -115.145200 314 2090ft 15kts

Navigation Log

Ident Type
Flight plan parsing failed, navigation log unavailable